sensor_id;sensor_type;location;lat;lon;timestamp;temperature;humidity
12845;DHT22;6489;48.508;9.206;2022-12-18T11:05:24;-0.60;1.00
12845;DHT22;6489;48.508;9.206;2022-12-18T11:08:58;-0.60;1.00
12845;DHT22;6489;48.508;9.206;2022-12-18T11:12:22;-0.80;1.00
12845;DHT22;6489;48.508;9.206;2022-12-18T11:15:45;-1.20;99.90
12845;DHT22;6489;48.508;9.206;2022-12-18T11:19:20;0.00;1.00
12845;DHT22;6489;48.508;9.206;2022-12-18T11:22:55;0.40;1.00
12845;DHT22;6489;48.508;9.206;2022-12-18T11:26:17;0.70;99.90
12845;DHT22;6489;48.508;9.206;2022-12-18T11:33:05;0.70;99.90
12845;DHT22;6489;48.508;9.206;2022-12-18T11:36:31;0.00;99.90
12845;DHT22;6489;48.508;9.206;2022-12-18T11:39:57;-1.80;99.90
12845;DHT22;6489;48.508;9.206;2022-12-18T11:43:26;-1.20;1.00
12845;DHT22;6489;48.508;9.206;2022-12-18T11:46:51;-1.00;1.00
12845;DHT22;6489;48.508;9.206;2022-12-18T11:50:17;-1.00;1.00
12845;DHT22;6489;48.508;9.206;2022-12-18T11:53:40;-0.70;99.90
12845;DHT22;6489;48.508;9.206;2022-12-18T11:57:06;-0.90;99.90
12845;DHT22;6489;48.508;9.206;2022-12-18T12:00:38;0.00;99.90
12845;DHT22;6489;48.508;9.206;2022-12-18T12:04:28;-0.40;99.90
12845;DHT22;6489;48.508;9.206;2022-12-18T12:08:03;-0.70;99.90
12845;DHT22;6489;48.508;9.206;2022-12-18T12:11:35;-0.70;1.00
12845;DHT22;6489;48.508;9.206;2022-12-18T12:15:10;-1.00;1.00
12845;DHT22;6489;48.508;9.206;2022-12-18T12:18:43;-1.30;1.00
12845;DHT22;6489;48.508;9.206;2022-12-18T12:22:11;-1.50;99.90
12845;DHT22;6489;48.508;9.206;2022-12-18T12:25:39;-1.30;1.00
12845;DHT22;6489;48.508;9.206;2022-12-18T12:29:24;-1.20;1.00
12845;DHT22;6489;48.508;9.206;2022-12-18T12:33:08;-1.70;1.00
12845;DHT22;6489;48.508;9.206;2022-12-18T12:40:01;-2.30;99.90
12845;DHT22;6489;48.508;9.206;2022-12-18T12:43:29;-2.10;1.00
12845;DHT22;6489;48.508;9.206;2022-12-18T12:50:20;-1.80;99.90
12845;DHT22;6489;48.508;9.206;2022-12-18T12:53:43;-2.20;99.90
12845;DHT22;6489;48.508;9.206;2022-12-18T12:57:11;-2.20;99.90
12845;DHT22;6489;48.508;9.206;2022-12-18T13:00:40;-2.20;1.00
12845;DHT22;6489;48.508;9.206;2022-12-18T13:04:12;-2.10;1.00
12845;DHT22;6489;48.508;9.206;2022-12-18T13:07:39;-2.10;1.00
12845;DHT22;6489;48.508;9.206;2022-12-18T13:11:03;-2.00;1.00
12845;DHT22;6489;48.508;9.206;2022-12-18T13:14:42;-1.80;99.90
12845;DHT22;6489;48.508;9.206;2022-12-18T13:18:16;-2.20;1.00
12845;DHT22;6489;48.508;9.206;2022-12-18T13:21:39;-2.40;99.90
12845;DHT22;6489;48.508;9.206;2022-12-18T13:28:50;-1.70;1.00
12845;DHT22;6489;48.508;9.206;2022-12-18T13:32:23;-2.20;99.90
12845;DHT22;6489;48.508;9.206;2022-12-18T13:35:53;-2.60;99.90
12845;DHT22;6489;48.508;9.206;2022-12-18T13:39:31;-2.10;1.00
12845;DHT22;6489;48.508;9.206;2022-12-18T13:42:54;-1.50;99.90
12845;DHT22;6489;48.508;9.206;2022-12-18T13:50:10;-1.60;1.00
12845;DHT22;6489;48.508;9.206;2022-12-18T13:57:24;-1.50;99.90
12845;DHT22;6489;48.508;9.206;2022-12-18T14:00:48;-1.50;99.90
12845;DHT22;6489;48.508;9.206;2022-12-18T14:04:11;-1.30;99.90
12845;DHT22;6489;48.508;9.206;2022-12-18T14:07:33;-0.50;99.90
12845;DHT22;6489;48.508;9.206;2022-12-18T14:10:56;-1.00;1.00
12845;DHT22;6489;48.508;9.206;2022-12-18T14:17:43;-1.10;1.00
12845;DHT22;6489;48.508;9.206;2022-12-18T14:24:27;-1.30;99.90
12845;DHT22;6489;48.508;9.206;2022-12-18T14:31:17;-1.60;1.00
12845;DHT22;6489;48.508;9.206;2022-12-18T14:34:41;-1.90;99.90
12845;DHT22;6489;48.508;9.206;2022-12-18T14:38:20;-2.00;1.00
12845;DHT22;6489;48.508;9.206;2022-12-18T14:41:43;-2.30;99.90
12845;DHT22;6489;48.508;9.206;2022-12-18T14:45:33;-2.20;1.00
12845;DHT22;6489;48.508;9.206;2022-12-18T14:48:55;-2.10;99.90
12845;DHT22;6489;48.508;9.206;2022-12-18T14:52:23;-2.20;1.00
12845;DHT22;6489;48.508;9.206;2022-12-18T14:55:48;-2.40;1.00
12845;DHT22;6489;48.508;9.206;2022-12-18T14:59:14;-2.40;1.00
12845;DHT22;6489;48.508;9.206;2022-12-18T15:06:15;-2.70;1.00
12845;DHT22;6489;48.508;9.206;2022-12-18T15:09:40;-3.10;1.00
12845;DHT22;6489;48.508;9.206;2022-12-18T15:16:31;-3.10;1.00
12845;DHT22;6489;48.508;9.206;2022-12-18T15:19:59;-3.10;1.00
12845;DHT22;6489;48.508;9.206;2022-12-18T15:26:46;-3.10;1.00
12845;DHT22;6489;48.508;9.206;2022-12-18T15:30:20;-3.00;1.00
12845;DHT22;6489;48.508;9.206;2022-12-18T15:33:44;-3.10;1.00
12845;DHT22;6489;48.508;9.206;2022-12-18T15:37:07;-2.40;1.00
12845;DHT22;6489;48.508;9.206;2022-12-18T15:40:29;-3.50;1.00
12845;DHT22;6489;48.508;9.206;2022-12-18T15:43:53;-2.70;1.00
12845;DHT22;6489;48.508;9.206;2022-12-18T15:50:40;-3.40;1.00
12845;DHT22;6489;48.508;9.206;2022-12-18T15:54:03;-2.80;1.00
12845;DHT22;6489;48.508;9.206;2022-12-18T16:00:48;-3.40;1.00
12845;DHT22;6489;48.508;9.206;2022-12-18T16:04:12;-3.10;1.00
12845;DHT22;6489;48.508;9.206;2022-12-18T16:10:57;-3.70;1.00
12845;DHT22;6489;48.508;9.206;2022-12-18T16:14:21;-3.70;1.00
12845;DHT22;6489;48.508;9.206;2022-12-18T16:17:46;-3.60;1.00
12845;DHT22;6489;48.508;9.206;2022-12-18T16:21:08;-3.20;1.00
12845;DHT22;6489;48.508;9.206;2022-12-18T16:24:32;-3.30;1.00
12845;DHT22;6489;48.508;9.206;2022-12-18T16:27:55;-3.20;1.00
12845;DHT22;6489;48.508;9.206;2022-12-18T16:31:17;-3.00;1.00
12845;DHT22;6489;48.508;9.206;2022-12-18T16:38:03;-2.70;99.90
12845;DHT22;6489;48.508;9.206;2022-12-18T16:44:56;-2.10;1.00
12845;DHT22;6489;48.508;9.206;2022-12-18T16:51:41;-3.50;1.00
12845;DHT22;6489;48.508;9.206;2022-12-18T16:55:05;-3.40;1.00
12845;DHT22;6489;48.508;9.206;2022-12-18T16:58:27;-3.00;1.00
12845;DHT22;6489;48.508;9.206;2022-12-18T17:01:48;-3.10;1.00
12845;DHT22;6489;48.508;9.206;2022-12-18T17:05:10;-2.90;1.00
12845;DHT22;6489;48.508;9.206;2022-12-18T17:08:33;-3.20;1.00
12845;DHT22;6489;48.508;9.206;2022-12-18T17:11:55;-3.00;1.00
12845;DHT22;6489;48.508;9.206;2022-12-18T17:15:17;-2.70;1.00
12845;DHT22;6489;48.508;9.206;2022-12-18T17:18:39;-3.50;1.00
12845;DHT22;6489;48.508;9.206;2022-12-18T17:22:01;-2.80;1.00
12845;DHT22;6489;48.508;9.206;2022-12-18T17:25:25;-2.90;1.00
12845;DHT22;6489;48.508;9.206;2022-12-18T17:28:47;-2.80;1.00
12845;DHT22;6489;48.508;9.206;2022-12-18T17:32:09;-2.60;99.90
12845;DHT22;6489;48.508;9.206;2022-12-18T17:35:31;-3.00;1.00
12845;DHT22;6489;48.508;9.206;2022-12-18T17:38:54;-2.50;99.90
12845;DHT22;6489;48.508;9.206;2022-12-18T17:42:18;-2.50;1.00
12845;DHT22;6489;48.508;9.206;2022-12-18T17:45:40;-2.40;99.90
12845;DHT22;6489;48.508;9.206;2022-12-18T17:52:25;-2.80;1.00
12845;DHT22;6489;48.508;9.206;2022-12-18T17:55:53;-2.30;1.00
12845;DHT22;6489;48.508;9.206;2022-12-18T17:59:16;-2.90;1.00
12845;DHT22;6489;48.508;9.206;2022-12-18T18:02:38;-2.50;1.00
12845;DHT22;6489;48.508;9.206;2022-12-18T18:06:01;-3.10;1.00
12845;DHT22;6489;48.508;9.206;2022-12-18T18:09:23;-2.60;1.00
12845;DHT22;6489;48.508;9.206;2022-12-18T18:12:45;-2.90;1.00
12845;DHT22;6489;48.508;9.206;2022-12-18T18:16:26;-3.00;1.00
12845;DHT22;6489;48.508;9.206;2022-12-18T18:19:47;-2.80;1.00
12845;DHT22;6489;48.508;9.206;2022-12-18T18:26:33;-2.80;1.00
12845;DHT22;6489;48.508;9.206;2022-12-18T18:29:56;-2.90;1.00
12845;DHT22;6489;48.508;9.206;2022-12-18T18:33:19;-3.00;1.00
12845;DHT22;6489;48.508;9.206;2022-12-18T18:36:41;-3.30;1.00
12845;DHT22;6489;48.508;9.206;2022-12-18T18:40:03;-3.20;1.00
12845;DHT22;6489;48.508;9.206;2022-12-18T18:46:47;-3.20;99.90
12845;DHT22;6489;48.508;9.206;2022-12-18T18:50:10;-2.70;1.00
12845;DHT22;6489;48.508;9.206;2022-12-18T18:56:57;-3.10;1.00
12845;DHT22;6489;48.508;9.206;2022-12-18T19:00:19;-3.40;32.90
12845;DHT22;6489;48.508;9.206;2022-12-18T19:03:42;-3.30;1.00
12845;DHT22;6489;48.508;9.206;2022-12-18T19:07:05;-3.00;1.00
12845;DHT22;6489;48.508;9.206;2022-12-18T19:10:27;-2.50;1.00
12845;DHT22;6489;48.508;9.206;2022-12-18T19:13:49;-3.20;1.00
12845;DHT22;6489;48.508;9.206;2022-12-18T19:17:11;-2.80;1.00
12845;DHT22;6489;48.508;9.206;2022-12-18T19:20:33;-3.10;1.00
12845;DHT22;6489;48.508;9.206;2022-12-18T19:23:56;-3.40;1.00
12845;DHT22;6489;48.508;9.206;2022-12-18T19:27:18;-3.40;1.00
12845;DHT22;6489;48.508;9.206;2022-12-18T19:34:03;-3.80;1.00
12845;DHT22;6489;48.508;9.206;2022-12-18T19:37:26;-3.60;1.00
12845;DHT22;6489;48.508;9.206;2022-12-18T19:40:49;-3.40;1.00
12845;DHT22;6489;48.508;9.206;2022-12-18T19:44:12;-3.60;1.00
12845;DHT22;6489;48.508;9.206;2022-12-18T19:47:34;-3.00;1.00
12845;DHT22;6489;48.508;9.206;2022-12-18T19:50:56;-3.40;1.00
12845;DHT22;6489;48.508;9.206;2022-12-18T19:54:17;-3.00;1.00
12845;DHT22;6489;48.508;9.206;2022-12-18T19:57:41;-3.40;1.00
12845;DHT22;6489;48.508;9.206;2022-12-18T20:01:03;-3.00;1.00
12845;DHT22;6489;48.508;9.206;2022-12-18T20:04:25;-2.30;1.00
12845;DHT22;6489;48.508;9.206;2022-12-18T20:14:32;-3.20;1.00
12845;DHT22;6489;48.508;9.206;2022-12-18T20:17:54;-3.50;1.00
12845;DHT22;6489;48.508;9.206;2022-12-18T20:24:38;-3.20;1.00
12845;DHT22;6489;48.508;9.206;2022-12-18T20:28:00;-2.80;1.00
12845;DHT22;6489;48.508;9.206;2022-12-18T20:31:23;-2.00;1.00
12845;DHT22;6489;48.508;9.206;2022-12-18T20:34:45;-3.20;1.00
12845;DHT22;6489;48.508;9.206;2022-12-18T20:38:07;-2.80;1.00
12845;DHT22;6489;48.508;9.206;2022-12-18T20:41:29;-3.20;1.00
12845;DHT22;6489;48.508;9.206;2022-12-18T20:44:51;-2.60;1.00
12845;DHT22;6489;48.508;9.206;2022-12-18T20:51:36;-2.70;1.00
12845;DHT22;6489;48.508;9.206;2022-12-18T20:54:58;-2.60;1.00
12845;DHT22;6489;48.508;9.206;2022-12-18T20:58:23;-2.60;1.00
12845;DHT22;6489;48.508;9.206;2022-12-18T21:01:45;-2.60;1.00
12845;DHT22;6489;48.508;9.206;2022-12-18T21:08:31;-2.50;1.00
12845;DHT22;6489;48.508;9.206;2022-12-18T21:15:32;-2.80;1.00
12845;DHT22;6489;48.508;9.206;2022-12-18T21:18:55;-2.80;1.00
12845;DHT22;6489;48.508;9.206;2022-12-18T21:25:40;-3.10;1.00
12845;DHT22;6489;48.508;9.206;2022-12-18T21:29:04;-2.80;1.00
12845;DHT22;6489;48.508;9.206;2022-12-18T21:32:26;-3.40;1.00
12845;DHT22;6489;48.508;9.206;2022-12-18T21:35:49;-3.40;1.00
12845;DHT22;6489;48.508;9.206;2022-12-18T21:39:12;-3.10;65.70
12845;DHT22;6489;48.508;9.206;2022-12-18T21:42:34;-3.10;1.00
12845;DHT22;6489;48.508;9.206;2022-12-18T21:46:14;-3.40;1.00
12845;DHT22;6489;48.508;9.206;2022-12-18T21:49:35;-3.10;1.00
12845;DHT22;6489;48.508;9.206;2022-12-18T21:52:57;-3.30;1.00
12845;DHT22;6489;48.508;9.206;2022-12-18T21:56:20;-3.00;1.00
12845;DHT22;6489;48.508;9.206;2022-12-18T21:59:42;-2.80;1.00
12845;DHT22;6489;48.508;9.206;2022-12-18T22:03:04;-3.00;1.00
12845;DHT22;6489;48.508;9.206;2022-12-18T22:06:26;-2.80;1.00
12845;DHT22;6489;48.508;9.206;2022-12-18T22:13:11;-3.50;1.00
12845;DHT22;6489;48.508;9.206;2022-12-18T22:16:33;-2.80;1.00
12845;DHT22;6489;48.508;9.206;2022-12-18T22:19:55;-3.00;1.00
12845;DHT22;6489;48.508;9.206;2022-12-18T22:23:17;-3.00;1.00
12845;DHT22;6489;48.508;9.206;2022-12-18T22:26:39;-3.00;1.00
12845;DHT22;6489;48.508;9.206;2022-12-18T22:30:03;-3.00;1.00
12845;DHT22;6489;48.508;9.206;2022-12-18T22:33:26;-2.20;1.00
12845;DHT22;6489;48.508;9.206;2022-12-18T22:36:48;-3.10;1.00
12845;DHT22;6489;48.508;9.206;2022-12-18T22:43:34;-2.40;1.00
12845;DHT22;6489;48.508;9.206;2022-12-18T22:50:19;-2.40;1.00
12845;DHT22;6489;48.508;9.206;2022-12-18T22:53:42;-2.00;1.00
12845;DHT22;6489;48.508;9.206;2022-12-18T22:57:03;-2.50;1.00
12845;DHT22;6489;48.508;9.206;2022-12-18T23:00:25;-2.80;1.00
12845;DHT22;6489;48.508;9.206;2022-12-18T23:03:49;-2.40;1.00
12845;DHT22;6489;48.508;9.206;2022-12-18T23:07:11;-2.40;1.00
12845;DHT22;6489;48.508;9.206;2022-12-18T23:10:36;-2.60;1.00
12845;DHT22;6489;48.508;9.206;2022-12-18T23:13:58;-2.40;1.00
12845;DHT22;6489;48.508;9.206;2022-12-18T23:17:20;-2.40;99.90
12845;DHT22;6489;48.508;9.206;2022-12-18T23:20:43;-2.00;1.00
12845;DHT22;6489;48.508;9.206;2022-12-18T23:24:06;-2.50;1.00
12845;DHT22;6489;48.508;9.206;2022-12-18T23:27:28;-2.40;1.00
12845;DHT22;6489;48.508;9.206;2022-12-18T23:30:49;-2.70;1.00
12845;DHT22;6489;48.508;9.206;2022-12-18T23:34:12;-2.70;1.00
12845;DHT22;6489;48.508;9.206;2022-12-18T23:37:36;-2.40;1.00
12845;DHT22;6489;48.508;9.206;2022-12-18T23:40:58;-2.80;1.00
12845;DHT22;6489;48.508;9.206;2022-12-18T23:44:20;-2.60;1.00
12845;DHT22;6489;48.508;9.206;2022-12-18T23:47:41;-2.30;1.00
12845;DHT22;6489;48.508;9.206;2022-12-18T23:51:05;-2.10;1.00
12845;DHT22;6489;48.508;9.206;2022-12-18T23:54:28;-2.20;1.00
